createdAt,value
2016-11-03T00:00:54.352Z,1009.93
2016-11-03T00:01:54.367Z,1009.92
2016-11-03T00:02:54.385Z,1009.92
2016-11-03T00:03:54.401Z,1009.95
2016-11-03T00:04:54.421Z,1009.96
2016-11-03T00:05:54.437Z,1009.97
2016-11-03T00:06:54.455Z,1010.02
2016-11-03T00:07:54.471Z,1010.02
2016-11-03T00:08:54.489Z,1009.97
2016-11-03T00:09:54.509Z,1010.1
2016-11-03T00:10:54.526Z,1010.04
2016-11-03T00:11:54.543Z,1010.12
2016-11-03T00:12:54.559Z,1010.1
2016-11-03T00:13:54.579Z,1010.12
2016-11-03T00:14:54.593Z,1010.1
2016-11-03T00:16:54.629Z,1010.14
2016-11-03T00:17:54.648Z,1010.14
2016-11-03T00:18:54.665Z,1010.17
2016-11-03T00:19:54.683Z,1010.19
2016-11-03T00:20:54.699Z,1010.21
2016-11-03T00:21:54.716Z,1010.19
2016-11-03T00:22:54.735Z,1010.17
2016-11-03T00:23:54.752Z,1010.2
2016-11-03T00:24:54.768Z,1010.26
2016-11-03T00:25:54.787Z,1010.24
2016-11-03T00:26:54.803Z,1010.25
2016-11-03T00:27:54.822Z,1010.21
2016-11-03T00:28:54.837Z,1010.27
2016-11-03T00:29:54.854Z,1010.26
2016-11-03T00:30:54.873Z,1010.34
2016-11-03T00:32:54.909Z,1010.33
2016-11-03T00:33:54.923Z,1010.32
2016-11-03T00:34:54.943Z,1010.4
2016-11-03T00:35:54.961Z,1010.37
2016-11-03T00:36:54.977Z,1010.43
2016-11-03T00:37:54.995Z,1010.45
2016-11-03T00:38:55.011Z,1010.47
2016-11-03T00:39:55.030Z,1010.48
2016-11-03T00:40:55.047Z,1010.55
2016-11-03T00:41:55.062Z,1010.55
2016-11-03T00:42:55.082Z,1010.57
2016-11-03T00:43:55.100Z,1010.57
2016-11-03T00:44:55.116Z,1010.49
2016-11-03T00:45:55.134Z,1010.52
2016-11-03T00:46:55.149Z,1010.51
2016-11-03T00:48:55.185Z,1010.51
2016-11-03T00:49:55.203Z,1010.54
2016-11-03T00:50:55.219Z,1010.48
2016-11-03T00:51:55.235Z,1010.47
2016-11-03T00:52:55.252Z,1010.49
2016-11-03T00:53:55.270Z,1010.47
2016-11-03T00:54:55.286Z,1010.5
2016-11-03T00:55:55.304Z,1010.48
2016-11-03T00:56:55.323Z,1010.54
2016-11-03T00:57:55.339Z,1010.53
2016-11-03T00:58:55.355Z,1010.56
2016-11-03T00:59:55.377Z,1010.6
2016-11-03T01:00:55.391Z,1010.53
2016-11-03T01:01:55.408Z,1010.58
2016-11-03T01:02:55.427Z,1010.64
2016-11-03T01:04:55.462Z,1010.6
2016-11-03T01:05:55.479Z,1010.59
2016-11-03T01:06:55.495Z,1010.62
2016-11-03T01:07:55.513Z,1010.71
2016-11-03T01:08:55.530Z,1010.65
2016-11-03T01:09:55.547Z,1010.63
2016-11-03T01:10:55.562Z,1010.63
2016-11-03T01:11:55.584Z,1010.62
2016-11-03T01:12:55.597Z,1010.61
2016-11-03T01:13:55.613Z,1010.6
2016-11-03T01:14:55.633Z,1010.6
2016-11-03T01:15:55.648Z,1010.73
2016-11-03T01:16:55.668Z,1010.57
2016-11-03T01:17:55.683Z,1010.58
2016-11-03T01:19:55.718Z,1010.61
2016-11-03T01:20:55.736Z,1010.63
2016-11-03T01:21:55.751Z,1010.62
2016-11-03T01:22:55.769Z,1010.67
2016-11-03T01:23:55.786Z,1010.66
2016-11-03T01:24:55.804Z,1010.67
2016-11-03T01:25:55.820Z,1010.71
2016-11-03T01:26:55.838Z,1010.73
2016-11-03T01:27:55.856Z,1010.65
2016-11-03T01:28:55.871Z,1010.69
2016-11-03T01:29:55.890Z,1010.68
2016-11-03T01:30:55.908Z,1010.69
2016-11-03T01:31:55.924Z,1010.67
2016-11-03T01:32:55.942Z,1010.72
2016-11-03T01:33:55.956Z,1010.73
2016-11-03T01:34:55.974Z,1010.72
2016-11-03T01:35:55.990Z,1010.78
2016-11-03T01:36:56.009Z,1010.83
2016-11-03T01:37:56.025Z,1010.78
2016-11-03T01:38:56.043Z,1010.8
2016-11-03T01:39:56.060Z,1010.84
2016-11-03T01:40:56.076Z,1010.79
2016-11-03T01:41:56.093Z,1010.83
2016-11-03T01:42:56.109Z,1010.84
2016-11-03T01:43:56.126Z,1010.79
2016-11-03T01:44:56.144Z,1010.82
2016-11-03T01:45:56.163Z,1010.81
2016-11-03T01:46:56.177Z,1010.84
2016-11-03T01:47:56.197Z,1010.82
2016-11-03T01:48:56.211Z,1010.83
2016-11-03T01:49:56.228Z,1010.84
2016-11-03T01:51:56.265Z,1010.86
2016-11-03T01:52:56.280Z,1010.87
2016-11-03T01:53:56.296Z,1010.9
2016-11-03T01:54:56.312Z,1010.91
2016-11-03T01:55:56.331Z,1010.88
2016-11-03T01:56:56.350Z,1010.92
2016-11-03T01:57:56.366Z,1010.91
2016-11-03T01:58:56.384Z,1010.91
2016-11-03T01:59:56.399Z,1010.89
2016-11-03T02:00:56.415Z,1010.81
2016-11-03T02:01:56.432Z,1010.84
2016-11-03T02:02:56.450Z,1010.9
2016-11-03T02:03:56.469Z,1010.9
2016-11-03T02:04:56.483Z,1010.94
2016-11-03T02:05:56.502Z,1010.99
2016-11-03T02:07:56.535Z,1010.96
2016-11-03T02:08:56.553Z,1010.96
2016-11-03T02:09:56.570Z,1010.98
2016-11-03T02:10:56.587Z,1011.07
2016-11-03T02:11:56.606Z,1011.01
2016-11-03T02:12:56.621Z,1011.01
2016-11-03T02:13:56.638Z,1011.01
2016-11-03T02:14:56.653Z,1011.03
2016-11-03T02:15:56.671Z,1011.11
2016-11-03T02:16:56.686Z,1011.04
2016-11-03T02:17:56.704Z,1011.04
2016-11-03T02:18:56.721Z,1011.12
2016-11-03T02:19:56.737Z,1011.1
2016-11-03T02:20:56.754Z,1011.12
2016-11-03T02:21:56.773Z,1011
2016-11-03T02:23:56.805Z,1011.14
2016-11-03T02:24:56.822Z,1011.15
2016-11-03T02:25:56.841Z,1011.19
2016-11-03T02:26:56.855Z,1011.17
2016-11-03T02:27:56.873Z,1011.2
2016-11-03T02:28:56.892Z,1011.21
2016-11-03T02:29:56.907Z,1011.21
2016-11-03T02:30:56.925Z,1011.28
2016-11-03T02:31:56.940Z,1011.27
2016-11-03T02:32:56.957Z,1011.28
2016-11-03T02:33:56.973Z,1011.36
2016-11-03T02:34:56.993Z,1011.3
2016-11-03T02:35:57.010Z,1011.34
2016-11-03T02:36:57.024Z,1011.37
2016-11-03T02:37:57.043Z,1011.43
2016-11-03T02:39:57.075Z,1011.45
2016-11-03T02:40:57.094Z,1011.46
2016-11-03T02:41:57.109Z,1011.49
2016-11-03T02:42:57.126Z,1011.52
2016-11-03T02:43:57.145Z,1011.49
2016-11-03T02:44:57.161Z,1011.53
2016-11-03T02:45:57.176Z,1011.51
2016-11-03T02:46:57.193Z,1011.56
2016-11-03T02:47:57.210Z,1011.55
2016-11-03T02:48:57.228Z,1011.59
2016-11-03T02:49:57.245Z,1011.64
2016-11-03T02:50:57.260Z,1011.67
2016-11-03T02:51:57.277Z,1011.64
2016-11-03T02:52:57.297Z,1011.62
2016-11-03T02:54:57.331Z,1011.62
2016-11-03T02:55:57.347Z,1011.65
2016-11-03T02:56:57.364Z,1011.59
2016-11-03T02:57:57.381Z,1011.66
2016-11-03T02:58:57.396Z,1011.61
2016-11-03T02:59:57.415Z,1011.6
2016-11-03T03:00:57.429Z,1011.67
2016-11-03T03:01:57.447Z,1011.68
2016-11-03T03:02:57.463Z,1011.66
2016-11-03T03:03:57.480Z,1011.68
2016-11-03T03:04:57.499Z,1011.68
2016-11-03T03:05:57.514Z,1011.68
2016-11-03T03:06:57.532Z,1011.66
2016-11-03T03:07:57.547Z,1011.69
2016-11-03T03:08:57.564Z,1011.71
2016-11-03T03:09:57.581Z,1011.79
2016-11-03T03:10:57.597Z,1011.75
2016-11-03T03:11:57.614Z,1011.81
2016-11-03T03:12:57.634Z,1011.81
2016-11-03T03:13:57.650Z,1011.86
2016-11-03T03:14:57.667Z,1011.86
2016-11-03T03:15:57.684Z,1011.86
2016-11-03T03:16:57.702Z,1011.91
2016-11-03T03:17:57.717Z,1011.9
2016-11-03T03:18:57.734Z,1011.93
2016-11-03T03:19:57.749Z,1011.93
2016-11-03T03:20:57.766Z,1011.92
2016-11-03T03:21:57.784Z,1011.91
2016-11-03T03:22:57.801Z,1011.92
2016-11-03T03:23:57.818Z,1011.93
2016-11-03T03:24:57.832Z,1011.92
2016-11-03T03:26:57.866Z,1011.9
2016-11-03T03:27:57.885Z,1011.99
2016-11-03T03:28:57.899Z,1012.04
2016-11-03T03:29:57.918Z,1011.97
2016-11-03T03:30:57.933Z,1012
2016-11-03T03:31:57.950Z,1012.04
2016-11-03T03:32:57.968Z,1012.01
2016-11-03T03:33:57.986Z,1012
2016-11-03T03:34:58.000Z,1012.04
2016-11-03T03:35:58.018Z,1012.05
2016-11-03T03:36:58.033Z,1012.08
2016-11-03T03:37:58.050Z,1012.07
2016-11-03T03:38:58.069Z,1012.13
2016-11-03T03:39:58.083Z,1012.14
2016-11-03T03:40:58.100Z,1012.16
2016-11-03T03:42:58.134Z,1012.18
2016-11-03T03:43:58.150Z,1012.15
2016-11-03T03:44:58.167Z,1012.22
2016-11-03T03:45:58.184Z,1012.21
2016-11-03T03:46:58.202Z,1012.2
2016-11-03T03:47:58.217Z,1012.25
2016-11-03T03:48:58.234Z,1012.24
2016-11-03T03:49:58.251Z,1012.25
2016-11-03T03:50:58.267Z,1012.29
2016-11-03T03:51:58.286Z,1012.28
2016-11-03T03:52:58.301Z,1012.28
2016-11-03T03:53:58.318Z,1012.31
2016-11-03T03:54:58.336Z,1012.3
2016-11-03T03:55:58.351Z,1012.35
2016-11-03T03:56:58.368Z,1012.32
2016-11-03T03:58:58.400Z,1012.37
2016-11-03T03:59:58.417Z,1012.41
2016-11-03T04:00:58.434Z,1012.39
2016-11-03T04:01:58.451Z,1012.4
2016-11-03T04:02:58.467Z,1012.46
2016-11-03T04:03:58.487Z,1012.44
2016-11-03T04:04:58.503Z,1012.46
2016-11-03T04:05:58.517Z,1012.5
2016-11-03T04:06:58.536Z,1012.52
2016-11-03T04:07:58.551Z,1012.51
2016-11-03T04:08:58.566Z,1012.55
2016-11-03T04:09:58.583Z,1012.56
2016-11-03T04:10:58.602Z,1012.54
2016-11-03T04:11:58.617Z,1012.57
2016-11-03T04:12:58.635Z,1012.55
2016-11-03T04:14:58.669Z,1012.63
2016-11-03T04:15:58.683Z,1012.58
2016-11-03T04:16:58.701Z,1012.62
2016-11-03T04:17:58.718Z,1012.57
2016-11-03T04:18:58.733Z,1012.64
2016-11-03T04:19:58.748Z,1012.62
2016-11-03T04:20:58.768Z,1012.6
2016-11-03T04:21:58.784Z,1012.6
2016-11-03T04:22:58.801Z,1012.67
2016-11-03T04:23:58.817Z,1012.63
2016-11-03T04:24:58.834Z,1012.66
2016-11-03T04:25:58.850Z,1012.73
2016-11-03T04:26:58.867Z,1012.7
2016-11-03T04:27:58.882Z,1012.69
2016-11-03T04:29:58.917Z,1012.73
2016-11-03T04:30:58.931Z,1012.74
2016-11-03T04:31:58.950Z,1012.73
2016-11-03T04:32:58.967Z,1012.73
2016-11-03T04:33:58.982Z,1012.73
2016-11-03T04:34:58.999Z,1012.73
2016-11-03T04:35:59.017Z,1012.77
2016-11-03T04:36:59.031Z,1012.84
2016-11-03T04:37:59.049Z,1012.81
2016-11-03T04:38:59.066Z,1012.87
2016-11-03T04:39:59.082Z,1012.84
2016-11-03T04:40:59.097Z,1012.92
2016-11-03T04:41:59.112Z,1012.91
2016-11-03T04:42:59.131Z,1012.89
2016-11-03T04:43:59.146Z,1012.87
2016-11-03T04:44:59.164Z,1012.89
2016-11-03T04:45:59.180Z,1012.84
2016-11-03T04:46:59.195Z,1012.87
2016-11-03T04:47:59.264Z,1012.87
2016-11-03T04:48:59.230Z,1012.89
2016-11-03T04:49:59.244Z,1012.84
2016-11-03T04:50:59.261Z,1012.83
2016-11-03T04:51:59.280Z,1012.87
2016-11-03T04:52:59.293Z,1012.83
2016-11-03T04:53:59.313Z,1012.87
2016-11-03T04:54:59.328Z,1012.86
2016-11-03T04:55:59.344Z,1012.87
2016-11-03T04:56:59.362Z,1012.84
2016-11-03T04:57:59.377Z,1012.84
2016-11-03T04:58:59.395Z,1012.84
2016-11-03T04:59:59.411Z,1012.82
2016-11-03T05:01:59.442Z,1012.93
2016-11-03T05:02:59.475Z,1012.92
2016-11-03T05:03:59.476Z,1012.94
2016-11-03T05:04:59.491Z,1012.97
2016-11-03T05:05:59.508Z,1012.97
2016-11-03T05:06:59.526Z,1012.96
2016-11-03T05:07:59.540Z,1012.97
2016-11-03T05:08:59.556Z,1012.97
2016-11-03T05:09:59.573Z,1012.99
2016-11-03T05:10:59.589Z,1012.99
2016-11-03T05:11:59.607Z,1012.99
2016-11-03T05:12:59.624Z,1013.07
2016-11-03T05:13:59.638Z,1013.05
2016-11-03T05:14:59.654Z,1013.03
2016-11-03T05:15:59.673Z,1013.11
2016-11-03T05:17:59.709Z,1013.14
2016-11-03T05:18:59.722Z,1013.09
2016-11-03T05:19:59.741Z,1013.13
2016-11-03T05:20:59.756Z,1013.22
2016-11-03T05:21:59.771Z,1013.2
2016-11-03T05:22:59.788Z,1013.27
2016-11-03T05:23:59.802Z,1013.26
2016-11-03T05:24:59.818Z,1013.3
2016-11-03T05:25:59.836Z,1013.24
2016-11-03T05:26:59.851Z,1013.29
2016-11-03T05:27:59.870Z,1013.31
2016-11-03T05:28:59.884Z,1013.31
2016-11-03T05:29:59.902Z,1013.3
2016-11-03T05:30:59.919Z,1013.28
2016-11-03T05:31:59.935Z,1013.29
2016-11-03T05:33:59.965Z,1013.35
2016-11-03T05:34:59.982Z,1013.34
2016-11-03T05:35:59.998Z,1013.37
2016-11-03T05:37:00.014Z,1013.38
2016-11-03T05:38:00.031Z,1013.4
2016-11-03T05:39:00.050Z,1013.46
2016-11-03T05:40:00.064Z,1013.46
2016-11-03T05:41:00.080Z,1013.44
2016-11-03T05:42:00.098Z,1013.49
2016-11-03T05:43:00.113Z,1013.51
2016-11-03T05:44:00.128Z,1013.52
2016-11-03T05:45:00.145Z,1013.53
2016-11-03T05:46:00.162Z,1013.55
2016-11-03T05:47:00.180Z,1013.51
2016-11-03T05:48:00.196Z,1013.59
2016-11-03T05:50:00.229Z,1013.61
2016-11-03T05:51:00.243Z,1013.59
2016-11-03T05:52:00.259Z,1013.6
2016-11-03T05:53:00.278Z,1013.64
2016-11-03T05:54:00.294Z,1013.64
2016-11-03T05:55:00.310Z,1013.67
2016-11-03T05:56:00.324Z,1013.67
2016-11-03T05:57:00.343Z,1013.63
2016-11-03T05:58:00.357Z,1013.67
2016-11-03T05:59:00.375Z,1013.65
2016-11-03T06:00:00.392Z,1013.66
2016-11-03T06:01:00.408Z,1013.64
2016-11-03T06:02:00.423Z,1013.67
2016-11-03T06:03:00.441Z,1013.67
2016-11-03T06:05:00.472Z,1013.7
2016-11-03T06:06:00.490Z,1013.72
2016-11-03T06:07:00.504Z,1013.79
2016-11-03T06:08:00.520Z,1013.73
2016-11-03T06:09:00.537Z,1013.79
2016-11-03T06:10:00.555Z,1013.73
2016-11-03T06:11:00.573Z,1013.8
2016-11-03T06:12:00.588Z,1013.84
2016-11-03T06:13:00.601Z,1013.84
2016-11-03T06:14:00.634Z,1013.85
2016-11-03T06:15:00.635Z,1013.86
2016-11-03T06:16:00.653Z,1013.87
2016-11-03T06:17:00.667Z,1013.87
2016-11-03T06:18:00.784Z,1013.88
2016-11-03T06:19:00.700Z,1013.87
2016-11-03T06:20:00.718Z,1013.91
2016-11-03T06:21:00.732Z,1013.89
2016-11-03T06:22:00.751Z,1013.92
2016-11-03T06:23:00.767Z,1013.91
2016-11-03T06:24:00.783Z,1013.89
2016-11-03T06:25:00.799Z,1013.94
2016-11-03T06:26:00.816Z,1013.94
2016-11-03T06:27:00.833Z,1013.93
2016-11-03T06:28:00.848Z,1013.97
2016-11-03T06:29:00.864Z,1014.01
2016-11-03T06:30:00.879Z,1014
2016-11-03T06:31:00.896Z,1014
2016-11-03T06:32:00.914Z,1013.97
2016-11-03T06:33:00.928Z,1013.97
2016-11-03T06:34:00.944Z,1014.03
2016-11-03T06:35:00.962Z,1014.05
2016-11-03T06:37:00.993Z,1014.06
2016-11-03T06:38:01.012Z,1014.08
2016-11-03T06:39:01.030Z,1014.07
2016-11-03T06:40:01.042Z,1014.1
2016-11-03T06:41:01.060Z,1014.08
2016-11-03T06:42:01.075Z,1014.11
2016-11-03T06:43:01.094Z,1014.11
2016-11-03T06:44:01.108Z,1014.12
2016-11-03T06:45:01.127Z,1014.12
2016-11-03T06:46:01.142Z,1014.17
2016-11-03T06:47:01.157Z,1014.17
2016-11-03T06:48:01.175Z,1014.18
2016-11-03T06:49:01.190Z,1014.16
2016-11-03T06:50:01.208Z,1014.17
2016-11-03T06:51:01.224Z,1014.16
2016-11-03T06:53:01.256Z,1014.17
2016-11-03T06:54:01.274Z,1014.18
2016-11-03T06:55:01.288Z,1014.14
2016-11-03T06:56:01.305Z,1014.23
2016-11-03T06:57:01.321Z,1014.19
2016-11-03T06:58:01.340Z,1014.23
2016-11-03T06:59:01.655Z,1014.29
2016-11-03T07:00:01.372Z,1014.31
2016-11-03T07:01:01.387Z,1014.35
2016-11-03T07:02:01.404Z,1014.35
2016-11-03T07:03:01.423Z,1014.42
2016-11-03T07:04:01.440Z,1014.38
2016-11-03T07:05:01.454Z,1014.38
2016-11-03T07:06:01.471Z,1014.44
2016-11-03T07:07:01.491Z,1014.53
2016-11-03T07:09:01.523Z,1014.5
2016-11-03T07:10:01.541Z,1014.49
2016-11-03T07:11:01.563Z,1014.55
2016-11-03T07:12:01.578Z,1014.53
2016-11-03T07:13:01.594Z,1014.54
2016-11-03T07:14:01.614Z,1014.56
2016-11-03T07:15:01.630Z,1014.57
2016-11-03T07:16:01.650Z,1014.55
2016-11-03T07:17:01.667Z,1014.59
2016-11-03T07:18:01.684Z,1014.65
2016-11-03T07:19:01.702Z,1014.6
2016-11-03T07:20:01.719Z,1014.63
2016-11-03T07:21:01.742Z,1014.66
2016-11-03T07:22:01.759Z,1014.69
2016-11-03T07:23:01.775Z,1014.69
2016-11-03T07:25:01.815Z,1014.71
2016-11-03T07:26:01.834Z,1014.72
2016-11-03T07:27:01.850Z,1014.7
2016-11-03T07:28:01.868Z,1014.73
2016-11-03T07:29:01.889Z,1014.71
2016-11-03T07:30:01.907Z,1014.74
2016-11-03T07:31:01.924Z,1014.77
2016-11-03T07:32:01.943Z,1014.77
2016-11-03T07:33:01.962Z,1014.77
2016-11-03T07:34:01.982Z,1014.75
2016-11-03T07:35:02.000Z,1014.8
2016-11-03T07:36:02.021Z,1014.78
2016-11-03T07:37:02.040Z,1014.8
2016-11-03T07:38:02.058Z,1014.79
2016-11-03T07:40:02.098Z,1014.81
2016-11-03T07:41:02.113Z,1014.8
2016-11-03T07:42:02.133Z,1014.82
2016-11-03T07:43:02.151Z,1014.84
2016-11-03T07:44:02.173Z,1014.87
2016-11-03T07:45:02.192Z,1014.88
2016-11-03T07:46:02.212Z,1014.92
2016-11-03T07:47:02.228Z,1014.89
2016-11-03T07:48:02.268Z,1014.93
2016-11-03T07:49:02.267Z,1014.91
2016-11-03T07:50:02.286Z,1014.94
2016-11-03T07:51:02.305Z,1014.91
2016-11-03T07:52:02.323Z,1014.96
2016-11-03T07:53:02.342Z,1014.94
2016-11-03T07:54:02.360Z,1014.95
2016-11-03T07:55:02.380Z,1014.94
2016-11-03T07:56:02.398Z,1014.96
2016-11-03T07:57:02.418Z,1014.99
2016-11-03T07:58:02.434Z,1014.99
2016-11-03T07:59:02.453Z,1015.04
2016-11-03T08:00:02.472Z,1015.04
2016-11-03T08:01:02.493Z,1015.06
2016-11-03T08:02:02.511Z,1015.05
2016-11-03T08:03:02.529Z,1015.05
2016-11-03T08:04:02.550Z,1015.07
2016-11-03T08:05:02.569Z,1015.07
2016-11-03T08:06:02.589Z,1015.09
2016-11-03T08:07:02.605Z,1015.07
2016-11-03T08:08:02.624Z,1015.12
2016-11-03T08:09:02.647Z,1015.12
2016-11-03T08:10:02.665Z,1015.1
2016-11-03T08:12:02.702Z,1015.12
2016-11-03T08:13:02.722Z,1015.09
2016-11-03T08:14:02.742Z,1015.14
2016-11-03T08:15:02.762Z,1015.1
2016-11-03T08:16:02.782Z,1015.07
2016-11-03T08:17:02.799Z,1015.14
2016-11-03T08:18:02.819Z,1015.15
2016-11-03T08:19:02.837Z,1015.13
2016-11-03T08:20:02.859Z,1015.17
2016-11-03T08:21:02.876Z,1015.18
2016-11-03T08:22:02.897Z,1015.18
2016-11-03T08:23:02.915Z,1015.16
2016-11-03T08:24:02.935Z,1015.21
2016-11-03T08:25:02.955Z,1015.24
2016-11-03T08:26:02.973Z,1015.26
2016-11-03T08:28:03.014Z,1015.28
2016-11-03T08:29:03.030Z,1015.29
2016-11-03T08:30:03.052Z,1015.26
2016-11-03T08:31:03.072Z,1015.31
2016-11-03T08:32:03.088Z,1015.31
2016-11-03T08:33:03.109Z,1015.34
2016-11-03T08:34:03.127Z,1015.41
2016-11-03T08:35:03.146Z,1015.4
2016-11-03T08:36:03.167Z,1015.39
2016-11-03T08:37:03.186Z,1015.36
2016-11-03T08:38:03.204Z,1015.42
2016-11-03T08:39:03.225Z,1015.44
2016-11-03T08:40:03.244Z,1015.46
2016-11-03T08:41:03.263Z,1015.42
2016-11-03T08:42:03.283Z,1015.43
2016-11-03T08:44:03.319Z,1015.48
2016-11-03T08:45:03.339Z,1015.48
2016-11-03T08:46:03.361Z,1015.44
2016-11-03T08:47:03.377Z,1015.49
2016-11-03T08:48:03.399Z,1015.47
2016-11-03T08:49:03.418Z,1015.5
2016-11-03T08:50:03.438Z,1015.47
2016-11-03T08:51:03.456Z,1015.47
2016-11-03T08:52:03.474Z,1015.44
2016-11-03T08:53:03.494Z,1015.45
2016-11-03T08:54:03.512Z,1015.45
2016-11-03T08:55:03.532Z,1015.51
2016-11-03T08:56:03.554Z,1015.52
2016-11-03T08:57:03.572Z,1015.54
2016-11-03T08:58:03.593Z,1015.53
2016-11-03T09:00:03.630Z,1015.53
2016-11-03T09:01:03.650Z,1015.56
2016-11-03T09:02:03.668Z,1015.55
2016-11-03T09:03:03.690Z,1015.56
2016-11-03T09:04:03.710Z,1015.62
2016-11-03T09:05:03.727Z,1015.69
2016-11-03T09:06:03.749Z,1015.66
2016-11-03T09:07:03.766Z,1015.68
2016-11-03T09:08:03.786Z,1015.7
2016-11-03T09:09:03.807Z,1015.7
2016-11-03T09:10:03.825Z,1015.7
2016-11-03T09:11:03.846Z,1015.72
2016-11-03T09:12:03.864Z,1015.74
2016-11-03T09:13:03.884Z,1015.75
2016-11-03T09:15:03.926Z,1015.75
2016-11-03T09:16:03.944Z,1015.74
2016-11-03T09:17:03.962Z,1015.8
2016-11-03T09:18:04.295Z,1015.79
2016-11-03T09:19:04.005Z,1015.84
2016-11-03T09:20:04.021Z,1015.8
2016-11-03T09:21:04.042Z,1015.85
2016-11-03T09:22:04.062Z,1015.86
2016-11-03T09:23:04.080Z,1015.86
2016-11-03T09:24:04.102Z,1015.89
2016-11-03T09:25:04.122Z,1015.89
2016-11-03T09:26:04.142Z,1015.89
2016-11-03T09:27:04.161Z,1015.89
2016-11-03T09:28:04.179Z,1015.9
2016-11-03T09:29:04.201Z,1015.95
2016-11-03T09:30:04.219Z,1015.99
2016-11-03T09:31:04.240Z,1015.98
2016-11-03T09:32:04.259Z,1015.94
2016-11-03T09:33:04.281Z,1015.98
2016-11-03T09:34:04.300Z,1016
2016-11-03T09:35:04.320Z,1016.05
2016-11-03T09:36:04.339Z,1016.05
2016-11-03T09:37:04.359Z,1016.02
2016-11-03T09:38:04.381Z,1016.06
2016-11-03T09:39:04.399Z,1016.08
2016-11-03T09:40:04.422Z,1016.09
2016-11-03T09:41:04.440Z,1016.09
2016-11-03T09:42:04.461Z,1016.09
2016-11-03T09:43:04.479Z,1016.08
2016-11-03T09:44:04.503Z,1016.07
2016-11-03T09:45:04.520Z,1016.06
2016-11-03T09:47:04.563Z,1016.11
2016-11-03T09:48:04.583Z,1016.14
2016-11-03T09:49:04.602Z,1016.17
2016-11-03T09:50:04.623Z,1016.17
2016-11-03T09:51:04.643Z,1016.15
2016-11-03T09:52:04.664Z,1016.13
2016-11-03T09:53:04.681Z,1016.17
2016-11-03T09:54:04.704Z,1016.18
2016-11-03T09:55:04.724Z,1016.2
2016-11-03T09:56:04.742Z,1016.18
2016-11-03T09:57:04.765Z,1016.2
2016-11-03T09:58:04.783Z,1016.25
2016-11-03T09:59:04.806Z,1016.21
2016-11-03T10:00:04.826Z,1016.21
2016-11-03T10:01:04.846Z,1016.19
2016-11-03T10:03:04.888Z,1016.2
2016-11-03T10:04:04.905Z,1016.2
2016-11-03T10:05:04.930Z,1016.16
2016-11-03T10:06:04.948Z,1016.15
2016-11-03T10:07:04.968Z,1016.13
2016-11-03T10:08:04.987Z,1016.12
2016-11-03T10:09:05.006Z,1016.12
2016-11-03T10:10:05.029Z,1016.11
2016-11-03T10:11:05.055Z,1016.15
2016-11-03T10:12:05.070Z,1016.1
2016-11-03T10:13:05.089Z,1016.09
2016-11-03T10:14:05.110Z,1016.1
2016-11-03T10:15:05.232Z,1016.11
2016-11-03T10:16:05.151Z,1016.13
2016-11-03T10:17:05.173Z,1016.09
2016-11-03T10:19:05.213Z,1016.1
2016-11-03T10:20:05.234Z,1016.09
2016-11-03T10:21:05.252Z,1016.02
2016-11-03T10:22:05.274Z,1016.08
2016-11-03T10:23:05.295Z,1016.09
2016-11-03T10:24:05.313Z,1016.07
2016-11-03T10:25:05.334Z,1016.09
2016-11-03T10:26:05.355Z,1016.11
2016-11-03T10:27:05.376Z,1016.08
2016-11-03T10:28:05.395Z,1016.07
2016-11-03T10:29:05.416Z,1016.12
2016-11-03T10:30:05.436Z,1016.07
2016-11-03T10:31:05.507Z,1016.05
2016-11-03T10:32:05.477Z,1016.04
2016-11-03T10:33:05.496Z,1016.09
2016-11-03T10:35:05.537Z,1016.05
2016-11-03T10:36:05.557Z,1016.08
2016-11-03T10:37:05.581Z,1016.03
2016-11-03T10:38:05.595Z,1016.02
2016-11-03T10:39:05.615Z,1016.09
2016-11-03T10:40:05.637Z,1016.04
2016-11-03T10:41:05.655Z,1016.03
2016-11-03T10:42:05.677Z,1016.04
2016-11-03T10:43:05.697Z,1016.01
2016-11-03T10:44:05.715Z,1016.02
2016-11-03T10:45:05.735Z,1016.02
2016-11-03T10:46:05.755Z,1016.09
2016-11-03T10:47:05.775Z,1016.08
2016-11-03T10:48:06.096Z,1016.04
2016-11-03T10:50:05.886Z,1016.04
2016-11-03T10:51:05.856Z,1016.03
2016-11-03T10:52:05.875Z,1016.04
2016-11-03T10:53:05.895Z,1016.04
2016-11-03T10:54:05.918Z,1016.03
2016-11-03T10:55:05.936Z,1016.04
2016-11-03T10:56:05.956Z,1016.02
2016-11-03T10:57:05.975Z,1016.03
2016-11-03T10:58:05.996Z,1016.07
2016-11-03T10:59:06.014Z,1016.04
2016-11-03T11:00:06.034Z,1016.01
2016-11-03T11:01:06.157Z,1015.99
2016-11-03T11:02:06.074Z,1015.95
2016-11-03T11:03:06.096Z,1016.02
2016-11-03T11:04:06.114Z,1016.03
2016-11-03T11:05:07.937Z,1015.97
2016-11-03T11:06:06.153Z,1015.94
2016-11-03T11:07:06.174Z,1016
2016-11-03T11:08:06.196Z,1016.01
2016-11-03T11:09:06.215Z,1015.97
2016-11-03T11:10:06.233Z,1015.99
2016-11-03T11:11:06.756Z,1015.98
2016-11-03T11:12:07.324Z,1015.96
2016-11-03T11:13:06.292Z,1015.97
2016-11-03T11:14:06.314Z,1015.92
2016-11-03T11:15:06.332Z,1015.95
2016-11-03T11:16:06.354Z,1015.93
2016-11-03T11:17:06.372Z,1015.9
2016-11-03T11:18:06.393Z,1015.92
2016-11-03T11:19:06.413Z,1015.93
2016-11-03T11:20:06.433Z,1015.94
2016-11-03T11:22:06.470Z,1015.92
2016-11-03T11:23:06.490Z,1015.92
2016-11-03T11:24:06.509Z,1015.88
2016-11-03T11:25:06.529Z,1015.96
2016-11-03T11:26:07.803Z,1015.95
2016-11-03T11:27:07.870Z,1015.97
2016-11-03T11:28:06.591Z,1015.97
2016-11-03T11:29:06.608Z,1015.95
2016-11-03T11:30:06.628Z,1015.93
2016-11-03T11:31:06.648Z,1015.97
2016-11-03T11:32:06.670Z,1015.98
2016-11-03T11:33:06.690Z,1015.91
2016-11-03T11:34:06.707Z,1015.93
2016-11-03T11:35:06.727Z,1015.95
2016-11-03T11:36:06.749Z,1015.95
2016-11-03T11:38:06.786Z,1015.95
2016-11-03T11:39:06.805Z,1015.97
2016-11-03T11:40:06.826Z,1015.93
2016-11-03T11:41:06.846Z,1015.93
2016-11-03T11:42:06.866Z,1015.94
2016-11-03T11:43:06.884Z,1015.94
2016-11-03T11:44:06.904Z,1015.9
2016-11-03T11:45:06.927Z,1015.96
2016-11-03T11:46:06.943Z,1016.02
2016-11-03T11:47:07.865Z,1015.96
2016-11-03T11:48:08.938Z,1015.95
2016-11-03T11:49:07.003Z,1015.92
2016-11-03T11:50:07.028Z,1015.92
2016-11-03T11:51:07.044Z,1015.89
2016-11-03T11:52:07.063Z,1015.91
2016-11-03T11:54:07.102Z,1015.9
2016-11-03T11:55:07.124Z,1015.91
2016-11-03T11:56:07.142Z,1015.94
2016-11-03T11:57:07.264Z,1015.96
2016-11-03T11:58:07.182Z,1015.93
2016-11-03T11:59:07.204Z,1015.96
2016-11-03T12:00:07.222Z,1015.92
2016-11-03T12:01:07.243Z,1015.92
2016-11-03T12:02:08.966Z,1015.89
2016-11-03T12:03:07.284Z,1015.9
2016-11-03T12:04:07.303Z,1015.9
2016-11-03T12:05:07.323Z,1015.88
2016-11-03T12:06:07.341Z,1015.88
2016-11-03T12:07:07.363Z,1015.87
2016-11-03T12:08:07.383Z,1015.91
2016-11-03T12:10:07.422Z,1015.84
2016-11-03T12:11:07.442Z,1015.87
2016-11-03T12:12:07.461Z,1015.87
2016-11-03T12:13:07.481Z,1015.86
2016-11-03T12:14:07.804Z,1015.88
2016-11-03T12:15:07.522Z,1015.89
2016-11-03T12:16:07.541Z,1015.9
2016-11-03T12:17:07.561Z,1015.89
2016-11-03T12:18:07.584Z,1015.85
2016-11-03T12:19:07.601Z,1015.83
2016-11-03T12:20:07.623Z,1015.83
2016-11-03T12:21:07.642Z,1015.85
2016-11-03T12:22:07.671Z,1015.84
2016-11-03T12:23:07.684Z,1015.84
2016-11-03T12:25:07.723Z,1015.83
2016-11-03T12:26:07.742Z,1015.83
2016-11-03T12:27:08.013Z,1015.85
2016-11-03T12:28:07.785Z,1015.78
2016-11-03T12:29:07.803Z,1015.85
2016-11-03T12:30:07.824Z,1015.85
2016-11-03T12:31:07.842Z,1015.86
2016-11-03T12:32:07.865Z,1015.83
2016-11-03T12:33:07.882Z,1015.81
2016-11-03T12:34:07.902Z,1015.86
2016-11-03T12:35:07.924Z,1015.86
2016-11-03T12:36:07.945Z,1015.86
2016-11-03T12:37:07.964Z,1015.85
2016-11-03T12:38:07.984Z,1015.84
2016-11-03T12:39:08.002Z,1015.84
2016-11-03T12:40:08.023Z,1015.87
2016-11-03T12:41:08.044Z,1015.87
2016-11-03T12:42:08.064Z,1015.8
2016-11-03T12:43:08.082Z,1015.83
2016-11-03T12:44:08.101Z,1015.78
2016-11-03T12:45:08.124Z,1015.84
2016-11-03T12:46:08.144Z,1015.82
2016-11-03T12:47:08.162Z,1015.82
2016-11-03T12:48:08.183Z,1015.74
2016-11-03T12:49:08.201Z,1015.75